createdAt,value
2024-03-16T00:01:02.685Z,57.88
2024-03-16T00:03:05.791Z,58.44
2024-03-16T00:05:07.837Z,57.47
2024-03-16T00:07:09.663Z,57.44
2024-03-16T00:09:12.201Z,57.67
2024-03-16T00:11:13.953Z,57.89
2024-03-16T00:13:15.752Z,58.06
2024-03-16T00:15:17.485Z,57.90
2024-03-16T00:17:22.968Z,58.79
2024-03-16T00:19:27.261Z,58.61
2024-03-16T00:21:30.459Z,59.49
2024-03-16T00:23:32.424Z,58.37
2024-03-16T00:25:34.608Z,58.56
2024-03-16T00:27:36.509Z,59.26
2024-03-16T00:29:38.239Z,58.59
2024-03-16T00:31:39.954Z,58.51
2024-03-16T00:33:41.715Z,58.96
2024-03-16T00:35:43.449Z,58.97
2024-03-16T00:37:45.210Z,58.46
2024-03-16T00:39:46.889Z,59.34
2024-03-16T00:41:49.096Z,58.75
2024-03-16T00:43:51.141Z,59.16
2024-03-16T00:45:52.885Z,58.76
2024-03-16T00:47:57.591Z,59.03
2024-03-16T00:49:59.436Z,58.93
2024-03-16T00:52:01.492Z,58.65
2024-03-16T00:54:03.723Z,58.91
2024-03-16T00:56:05.526Z,58.66
2024-03-16T00:58:07.733Z,59.20
2024-03-16T01:00:15.981Z,59.24
2024-03-16T01:02:17.769Z,59.12
2024-03-16T01:04:22.190Z,59.17
2024-03-16T01:06:26.883Z,59.45
2024-03-16T01:08:28.639Z,59.85
2024-03-16T01:10:30.501Z,59.48
2024-03-16T01:12:32.231Z,59.65
2024-03-16T01:14:33.947Z,59.73
2024-03-16T01:16:36.615Z,59.62
2024-03-16T01:18:41.349Z,58.95
2024-03-16T01:20:46.672Z,58.37
2024-03-16T01:22:48.440Z,58.93
2024-03-16T01:24:51.056Z,59.36
2024-03-16T01:26:52.770Z,58.89
2024-03-16T01:28:55.027Z,58.89
2024-03-16T01:30:56.950Z,59.91
2024-03-16T01:32:58.706Z,59.41
2024-03-16T01:35:00.411Z,58.71
2024-03-16T01:37:02.260Z,59.17
2024-03-16T01:39:05.057Z,58.88
2024-03-16T01:41:06.952Z,59.66
2024-03-16T01:43:15.898Z,59.82
2024-03-16T01:45:17.665Z,59.38
2024-03-16T01:47:21.439Z,59.83
2024-03-16T01:49:23.350Z,59.23
2024-03-16T01:51:25.489Z,59.12
2024-03-16T01:53:27.368Z,59.46
2024-03-16T01:55:29.990Z,58.59
2024-03-16T01:57:31.745Z,58.42
2024-03-16T01:59:33.441Z,59.28
2024-03-16T02:01:35.793Z,58.88
2024-03-16T02:03:37.536Z,59.39
2024-03-16T02:05:39.506Z,58.13
2024-03-16T02:07:45.349Z,59.05
2024-03-16T02:09:47.074Z,59.24
2024-03-16T02:11:51.149Z,59.48
2024-03-16T02:13:52.837Z,58.84
2024-03-16T02:15:54.544Z,58.58
2024-03-16T02:17:56.719Z,57.72
2024-03-16T02:19:58.443Z,58.18
2024-03-16T02:22:00.292Z,58.63
2024-03-16T02:24:02.114Z,58.85
2024-03-16T02:26:06.152Z,58.92
2024-03-16T02:28:10.658Z,59.16
2024-03-16T02:30:16.249Z,59.42
2024-03-16T02:32:20.939Z,59.44
2024-03-16T02:34:25.615Z,59.06
2024-03-16T02:36:29.648Z,59.01
2024-03-16T02:38:31.388Z,58.82
2024-03-16T02:40:33.296Z,58.70
2024-03-16T02:42:36.778Z,59.20
2024-03-16T02:44:38.567Z,59.23
2024-03-16T02:46:40.308Z,58.08
2024-03-16T02:48:42.024Z,58.77
2024-03-16T02:50:43.769Z,58.97
2024-03-16T02:52:45.630Z,59.36
2024-03-16T02:54:47.404Z,59.19
2024-03-16T02:56:49.789Z,57.76
2024-03-16T02:58:51.550Z,57.80
2024-03-16T03:00:54.729Z,61.61
2024-03-16T03:02:56.412Z,56.83
2024-03-16T03:04:58.078Z,57.97
2024-03-16T03:06:59.939Z,57.21
2024-03-16T03:09:01.992Z,57.73
2024-03-16T03:11:05.342Z,64.65
2024-03-16T03:13:10.262Z,60.87
2024-03-16T03:15:13.562Z,58.50
2024-03-16T03:17:18.346Z,56.49
2024-03-16T03:19:22.714Z,63.98
2024-03-16T03:21:24.836Z,60.48
2024-03-16T03:23:26.649Z,66.57
2024-03-16T03:25:28.624Z,65.20
2024-03-16T03:27:30.345Z,65.97
2024-03-16T03:29:32.124Z,65.70
2024-03-16T03:31:33.870Z,62.10
2024-03-16T03:33:35.851Z,62.32
2024-03-16T03:35:40.908Z,66.57
2024-03-16T03:37:42.567Z,67.13
2024-03-16T03:39:44.328Z,60.91
2024-03-16T03:41:46.111Z,67.02
2024-03-16T03:43:59.035Z,66.57
2024-03-16T03:46:00.910Z,64.88
2024-03-16T03:48:04.627Z,60.67
2024-03-16T03:50:06.558Z,62.94
2024-03-16T03:52:08.303Z,64.60
2024-03-16T03:54:10.053Z,63.28
2024-03-16T03:56:12.159Z,62.25
2024-03-16T03:58:14.262Z,65.08
2024-03-16T04:00:16.987Z,63.24
2024-03-16T04:02:18.720Z,61.99
2024-03-16T04:04:22.730Z,61.46
2024-03-16T04:06:28.867Z,60.71
2024-03-16T04:08:30.599Z,64.18
2024-03-16T04:10:32.922Z,58.85
2024-03-16T04:12:34.730Z,58.75
2024-03-16T04:14:36.483Z,58.12
2024-03-16T04:16:38.196Z,58.08
2024-03-16T04:18:40.447Z,58.88
2024-03-16T04:20:42.157Z,60.75
2024-03-16T04:22:44.074Z,59.21
2024-03-16T04:24:45.967Z,60.02
2024-03-16T04:26:47.728Z,58.97
2024-03-16T04:28:49.512Z,61.42
2024-03-16T04:30:51.512Z,59.93
2024-03-16T04:32:53.307Z,58.90
2024-03-16T04:34:55.268Z,58.50
2024-03-16T04:36:57.043Z,59.88
2024-03-16T04:38:58.741Z,60.12
2024-03-16T04:41:00.601Z,60.40
2024-03-16T04:43:05.315Z,59.71
2024-03-16T04:45:09.871Z,62.48
2024-03-16T04:47:11.563Z,62.83
2024-03-16T04:49:13.294Z,59.05
2024-03-16T04:51:16.155Z,61.24
2024-03-16T04:53:17.961Z,58.56
2024-03-16T04:55:19.681Z,59.33
2024-03-16T04:57:21.405Z,59.75
2024-03-16T04:59:23.198Z,57.75
2024-03-16T05:01:25.203Z,58.33
2024-03-16T05:03:28.428Z,58.50
2024-03-16T05:05:30.269Z,57.47
2024-03-16T05:07:33.394Z,56.96
2024-03-16T05:09:35.401Z,60.81
2024-03-16T05:11:38.018Z,57.51
2024-03-16T05:13:39.720Z,57.18
2024-03-16T05:15:41.439Z,58.66
2024-03-16T05:17:43.311Z,58.68
2024-03-16T05:19:45.901Z,59.61
2024-03-16T05:21:47.663Z,62.83
2024-03-16T05:25:53.867Z,58.19
2024-03-16T05:27:55.590Z,57.43
2024-03-16T05:29:57.720Z,57.26
2024-03-16T05:32:00.706Z,58.72
2024-03-16T05:34:02.956Z,57.50
2024-03-16T05:36:06.882Z,59.59
2024-03-16T05:38:08.561Z,59.38
2024-03-16T05:40:11.674Z,58.67
2024-03-16T05:42:13.439Z,57.53
2024-03-16T05:44:15.236Z,58.05
2024-03-16T05:46:17.118Z,57.11
2024-03-16T05:48:19.340Z,57.34
2024-03-16T05:50:21.012Z,57.66
2024-03-16T05:52:22.868Z,57.11
2024-03-16T05:54:24.667Z,58.74
2024-03-16T05:56:26.496Z,57.80
2024-03-16T05:58:33.284Z,57.52
2024-03-16T06:00:39.380Z,57.59
2024-03-16T06:02:41.505Z,57.80
2024-03-16T06:04:46.111Z,57.87
2024-03-16T06:06:50.306Z,57.49
2024-03-16T06:08:51.974Z,58.08
2024-03-16T06:10:53.765Z,57.35
2024-03-16T06:12:55.588Z,58.38
2024-03-16T06:14:57.411Z,57.39
2024-03-16T06:16:59.099Z,57.26
2024-03-16T06:19:01.624Z,59.06
2024-03-16T06:21:05.681Z,59.37
2024-03-16T06:23:07.935Z,58.47
2024-03-16T06:25:12.090Z,57.90
2024-03-16T06:27:19.638Z,58.41
2024-03-16T06:29:27.580Z,57.63
2024-03-16T06:31:37.166Z,57.74
2024-03-16T06:33:46.482Z,57.04
2024-03-16T06:35:51.560Z,56.35
2024-03-16T06:37:53.214Z,57.55
2024-03-16T06:39:54.935Z,57.77
2024-03-16T06:41:56.758Z,56.22
2024-03-16T06:43:58.473Z,56.61
2024-03-16T06:46:02.345Z,55.79
2024-03-16T06:48:04.482Z,56.42
2024-03-16T06:50:08.387Z,57.60
2024-03-16T06:52:10.946Z,55.99
2024-03-16T06:54:13.897Z,56.61
2024-03-16T06:56:15.788Z,55.29
2024-03-16T06:58:17.629Z,55.04
2024-03-16T07:00:19.298Z,55.62
2024-03-16T07:02:21.029Z,56.02
2024-03-16T07:04:23.065Z,57.24
2024-03-16T07:06:26.283Z,56.67
2024-03-16T07:08:30.586Z,56.27
2024-03-16T07:10:32.303Z,61.00
2024-03-16T07:12:35.458Z,58.29
2024-03-16T07:14:37.153Z,57.33
2024-03-16T07:16:39.095Z,57.75
2024-03-16T07:18:43.946Z,62.69
2024-03-16T07:20:47.820Z,59.59
2024-03-16T07:22:49.517Z,57.64
2024-03-16T07:24:51.484Z,59.56
2024-03-16T07:26:53.256Z,60.51
2024-03-16T07:28:56.658Z,57.66
2024-03-16T07:30:58.597Z,57.29
2024-03-16T07:33:00.447Z,59.08
2024-03-16T07:35:02.322Z,60.26
2024-03-16T07:37:05.585Z,58.00
2024-03-16T07:39:10.120Z,59.09
2024-03-16T07:41:15.213Z,65.01
2024-03-16T07:43:17.051Z,59.04
2024-03-16T07:45:18.803Z,63.46
2024-03-16T07:47:20.634Z,65.81
2024-03-16T07:49:22.374Z,63.71
2024-03-16T07:51:30.491Z,58.22
2024-03-16T07:53:35.382Z,62.50
2024-03-16T07:55:40.213Z,61.92
2024-03-16T07:57:41.933Z,64.38
2024-03-16T07:59:43.595Z,61.87
2024-03-16T08:01:45.431Z,63.94
2024-03-16T08:03:47.183Z,61.59
2024-03-16T08:05:49.132Z,59.99
2024-03-16T08:07:51.044Z,61.00
2024-03-16T08:09:52.763Z,63.92
2024-03-16T08:11:54.472Z,61.16
2024-03-16T08:13:56.205Z,59.54
2024-03-16T08:15:58.173Z,60.58
2024-03-16T08:18:01.956Z,62.59
2024-03-16T08:20:04.388Z,60.04
2024-03-16T08:22:06.220Z,58.91
2024-03-16T08:24:07.961Z,62.71
2024-03-16T08:26:10.634Z,63.68
2024-03-16T08:28:12.445Z,65.14
2024-03-16T08:30:14.268Z,63.01
2024-03-16T08:32:16.038Z,65.63
2024-03-16T08:34:17.966Z,64.32
2024-03-16T08:36:19.704Z,64.24
2024-03-16T08:38:21.346Z,66.21
2024-03-16T08:40:23.713Z,63.93
2024-03-16T08:42:25.980Z,65.04
2024-03-16T08:44:29.746Z,63.27
2024-03-16T08:46:33.294Z,62.49
2024-03-16T08:48:35.689Z,66.11
2024-03-16T08:50:37.426Z,61.04
2024-03-16T08:52:39.698Z,62.95
2024-03-16T08:54:41.446Z,65.08
2024-03-16T08:56:45.858Z,64.78
2024-03-16T08:58:47.844Z,62.72
2024-03-16T09:00:49.811Z,64.58
2024-03-16T09:02:53.545Z,64.18
2024-03-16T09:04:58.148Z,61.70
2024-03-16T09:07:00.431Z,65.55
2024-03-16T09:09:02.670Z,64.69
2024-03-16T09:11:05.379Z,65.99
2024-03-16T09:13:07.299Z,64.50
2024-03-16T09:15:12.944Z,64.78
2024-03-16T09:17:14.656Z,65.41
2024-03-16T09:19:16.510Z,65.15
2024-03-16T09:21:18.321Z,64.25
2024-03-16T09:23:20.223Z,62.15
2024-03-16T09:25:22.260Z,62.05
2024-03-16T09:27:23.906Z,64.79
2024-03-16T09:29:25.675Z,63.49
2024-03-16T09:31:30.318Z,62.60
2024-03-16T09:33:35.512Z,65.80
2024-03-16T09:35:37.461Z,57.61
2024-03-16T09:37:39.364Z,58.31
2024-03-16T09:39:43.762Z,62.54
2024-03-16T09:41:47.857Z,61.63
